createdAt,value
2022-10-31T00:00:24.002Z,17
2022-10-31T00:15:23.639Z,16
2022-10-31T00:30:24.065Z,14
2022-10-31T00:45:23.423Z,13
2022-10-31T01:00:24.192Z,12
2022-10-31T01:15:24.707Z,13
2022-10-31T01:30:24.003Z,11
2022-10-31T01:45:23.853Z,13
2022-10-31T02:00:23.951Z,14
2022-10-31T02:15:24.398Z,12
2022-10-31T02:30:24.417Z,12
2022-10-31T02:45:23.907Z,12
2022-10-31T03:00:23.970Z,14
2022-10-31T03:15:24.191Z,15
2022-10-31T03:30:24.132Z,17
2022-10-31T03:45:24.121Z,18
2022-10-31T04:00:24.339Z,19
2022-10-31T04:15:23.969Z,15
2022-10-31T04:30:24.239Z,15
2022-10-31T04:45:24.282Z,14
2022-10-31T05:00:24.383Z,16
2022-10-31T05:15:23.696Z,14
2022-10-31T05:30:24.515Z,15
2022-10-31T05:45:23.507Z,18
2022-10-31T06:00:24.158Z,19
2022-10-31T06:15:24.797Z,17
2022-10-31T06:30:24.189Z,17
2022-10-31T06:45:23.871Z,15
2022-10-31T07:00:23.891Z,13
2022-10-31T07:15:24.235Z,15
2022-10-31T07:30:23.789Z,14
2022-10-31T07:45:24.137Z,13
2022-10-31T08:00:24.448Z,12
2022-10-31T08:15:23.919Z,12
2022-10-31T08:30:24.393Z,9
2022-10-31T08:45:23.874Z,7
2022-10-31T09:00:24.612Z,6
2022-10-31T09:15:23.789Z,7
2022-10-31T09:30:23.726Z,7
2022-10-31T09:45:24.035Z,8
2022-10-31T10:00:24.453Z,7
2022-10-31T10:15:24.559Z,8
2022-10-31T10:30:23.629Z,8
2022-10-31T10:45:24.281Z,6
2022-10-31T11:00:24.522Z,6
2022-10-31T11:15:24.343Z,6
2022-10-31T11:30:24.048Z,5
2022-10-31T11:45:23.748Z,5
2022-10-31T12:00:23.723Z,6
2022-10-31T12:30:24.019Z,6
2022-10-31T12:45:23.875Z,3
2022-10-31T13:00:03.483Z,3
2022-10-31T13:00:25.367Z,6
2022-10-31T13:15:24.338Z,6
2022-10-31T13:30:23.712Z,6
2022-10-31T13:45:23.485Z,5
2022-10-31T14:00:24.230Z,5
2022-10-31T14:15:24.018Z,7
2022-10-31T14:30:24.466Z,8
2022-10-31T14:45:23.832Z,5
2022-10-31T15:00:24.116Z,11
2022-10-31T15:15:24.015Z,12
2022-10-31T15:30:23.735Z,14
2022-10-31T15:45:24.693Z,10
2022-10-31T16:00:23.772Z,14
2022-10-31T16:15:24.326Z,36
2022-10-31T16:30:23.959Z,22
2022-10-31T16:45:23.588Z,22
2022-10-31T17:00:23.897Z,12
2022-10-31T17:15:24.616Z,26
2022-10-31T17:30:24.550Z,18
2022-10-31T17:45:24.279Z,25
2022-10-31T18:00:24.181Z,30
2022-10-31T18:15:24.749Z,30
2022-10-31T18:30:24.550Z,29
2022-10-31T18:45:33.758Z,62
2022-10-31T19:00:24.760Z,30
2022-10-31T19:15:24.012Z,44
2022-10-31T19:30:24.052Z,45
2022-10-31T19:45:23.750Z,34
2022-10-31T20:00:23.725Z,38
2022-10-31T20:15:23.839Z,37
2022-10-31T20:30:23.908Z,35
2022-10-31T20:45:23.697Z,41
2022-10-31T21:00:24.635Z,46
2022-10-31T21:15:24.275Z,40
2022-10-31T21:30:23.583Z,45
2022-10-31T21:45:23.714Z,37
2022-10-31T22:00:24.710Z,29
2022-10-31T22:15:24.199Z,29
2022-10-31T22:30:23.698Z,31
2022-10-31T22:45:23.767Z,32
2022-10-31T23:00:24.443Z,36
2022-10-31T23:15:23.485Z,36
2022-10-31T23:30:23.523Z,37
2022-10-31T23:45:24.562Z,41
